Time;durP1;ratioP1;P1;durP2;ratioP2;P2;SDS_P1;SDS_P2;PMS_P1;PMS_P2;Temp;Humidity;BMP_temperature;BMP_pressure;BME280_temperature;BME280_humidity;BME280_pressure;Samples;Min_cycle;Max_cycle;Signal;HPM_P1;HPM_P2
2023/06/02 00:00:38;;;;;;;17.75;16.12;;;24.00;69.00;;;;;;4859637;54;21071;-37
2023/06/02 00:05:39;;;;;;;16.50;15.00;;;24.00;69.00;;;;;;4810257;54;21537;-32
2023/06/02 00:10:40;;;;;;;16.55;14.95;;;24.00;69.00;;;;;;4882940;54;21461;-37
2023/06/02 00:15:41;;;;;;;17.90;16.12;;;24.00;68.90;;;;;;4799223;58;21022;-34
2023/06/02 00:20:44;;;;;;;17.70;16.00;;;24.00;69.00;;;;;;4933398;54;21007;-35
2023/06/02 00:25:45;;;;;;;17.12;15.52;;;23.90;68.80;;;;;;4828120;54;21580;-32
2023/06/02 00:30:46;;;;;;;17.90;16.20;;;24.00;68.80;;;;;;4843991;54;21007;-33
2023/06/02 00:35:47;;;;;;;17.85;16.15;;;24.00;68.80;;;;;;4824532;54;21460;-32
2023/06/02 00:40:48;;;;;;;17.98;16.27;;;24.00;68.80;;;;;;5006637;54;20994;-30
2023/06/02 00:45:49;;;;;;;16.20;14.75;;;24.00;68.80;;;;;;4825396;54;21531;-33
2023/06/02 00:50:53;;;;;;;16.20;14.68;;;24.00;68.80;;;;;;4861854;53;21094;-35
2023/06/02 00:55:55;;;;;;;18.15;16.35;;;24.00;68.80;;;;;;4895335;54;21015;-32
2023/06/02 01:00:56;;;;;;;16.17;14.68;;;24.00;68.80;;;;;;4798467;58;21558;-34
2023/06/02 01:06:00;;;;;;;16.75;15.07;;;24.00;68.70;;;;;;4799283;58;21066;-33
2023/06/02 01:11:01;;;;;;;15.63;14.18;;;24.00;68.70;;;;;;4927845;54;21495;-33
2023/06/02 01:16:03;;;;;;;17.27;15.70;;;24.00;68.60;;;;;;4947054;54;21086;-31
2023/06/02 01:21:05;;;;;;;16.83;15.25;;;24.00;68.70;;;;;;4908042;54;21087;-33
2023/06/02 01:26:06;;;;;;;17.08;15.52;;;24.00;68.70;;;;;;4941636;54;21469;-32
2023/06/02 01:31:15;;;;;;;17.23;15.63;;;24.00;68.70;;;;;;4890564;54;21039;-31
2023/06/02 01:36:20;;;;;;;15.15;13.75;;;24.00;68.60;;;;;;4799700;58;21457;-33
2023/06/02 01:41:23;;;;;;;17.12;15.38;;;24.00;68.60;;;;;;4801318;54;21074;-32
2023/06/02 01:46:25;;;;;;;16.45;14.95;;;24.00;68.60;;;;;;5013625;54;21102;-33
2023/06/02 01:51:26;;;;;;;17.02;15.32;;;24.00;68.60;;;;;;4858739;54;20975;-33
2023/06/02 01:56:27;;;;;;;16.62;15.13;;;23.90;68.60;;;;;;4829716;54;21596;-34
2023/06/02 02:01:28;;;;;;;16.58;15.05;;;23.90;68.60;;;;;;4825494;54;21019;-35
2023/06/02 02:06:29;;;;;;;16.52;14.95;;;23.90;68.60;;;;;;4894104;54;21003;-34
2023/06/02 02:11:30;;;;;;;17.55;15.73;;;23.90;68.50;;;;;;4820363;54;21551;-34
2023/06/02 02:16:31;;;;;;;16.52;14.95;;;23.90;68.50;;;;;;4799015;58;21066;-37
2023/06/02 02:21:33;;;;;;;17.50;15.80;;;23.90;68.50;;;;;;4820668;54;21479;-35
2023/06/02 02:26:33;;;;;;;16.73;15.13;;;23.90;68.50;;;;;;4829566;54;21536;-35
2023/06/02 02:31:34;;;;;;;16.25;14.75;;;23.90;68.50;;;;;;4799112;58;21054;-34
2023/06/02 02:36:35;;;;;;;16.58;14.98;;;23.90;68.50;;;;;;4924975;54;21555;-34
2023/06/02 02:41:36;;;;;;;16.87;15.27;;;23.90;68.50;;;;;;4798215;55;21027;-32
2023/06/02 02:46:37;;;;;;;16.40;14.82;;;23.90;68.50;;;;;;4848031;54;21079;-31
2023/06/02 02:51:37;;;;;;;16.00;14.60;;;23.90;68.50;;;;;;4899913;54;20991;-33
2023/06/02 02:56:39;;;;;;;16.90;15.30;;;23.90;68.50;;;;;;4896319;54;21014;-33
2023/06/02 03:01:43;;;;;;;16.55;14.95;;;23.90;68.50;;;;;;4829405;54;21536;-33
2023/06/02 03:06:49;;;;;;;15.98;14.48;;;23.90;68.50;;;;;;4961458;54;21576;-36
2023/06/02 03:11:50;;;;;;;16.55;15.02;;;23.90;68.50;;;;;;4815765;54;21420;-34
2023/06/02 03:16:51;;;;;;;16.70;15.18;;;23.90;68.50;;;;;;4915671;54;21043;-36
2023/06/02 03:21:52;;;;;;;16.73;15.13;;;23.90;68.50;;;;;;4798466;58;21607;-34
2023/06/02 03:26:55;;;;;;;16.98;15.30;;;23.90;68.50;;;;;;4799576;58;21003;-33
2023/06/02 03:31:56;;;;;;;16.00;14.50;;;23.90;68.50;;;;;;4815289;54;21007;-33
2023/06/02 03:37:01;;;;;;;16.02;14.63;;;23.90;68.50;;;;;;4799377;58;21496;-34
2023/06/02 03:42:02;;;;;;;16.35;14.85;;;23.90;68.50;;;;;;4872669;54;21569;-34
2023/06/02 03:47:06;;;;;;;16.17;14.68;;;23.90;68.40;;;;;;4827239;54;21034;-33
2023/06/02 03:52:07;;;;;;;16.45;14.85;;;23.90;68.40;;;;;;4891044;54;21007;-32
2023/06/02 03:57:07;;;;;;;16.58;14.90;;;23.90;68.40;;;;;;4916299;54;21010;-33
2023/06/02 04:02:08;;;;;;;16.48;14.98;;;23.90;68.30;;;;;;4885606;54;21090;-33
2023/06/02 04:07:09;;;;;;;16.75;15.30;;;23.90;68.30;;;;;;4799441;58;21053;-31
2023/06/02 04:12:13;;;;;;;15.85;14.35;;;23.80;68.20;;;;;;4813395;54;21006;-33
2023/06/02 04:17:14;;;;;;;16.00;14.50;;;23.90;68.20;;;;;;4954642;54;21043;-32
2023/06/02 04:22:15;;;;;;;16.92;15.23;;;23.80;68.10;;;;;;4972081;54;21472;-33
2023/06/02 04:27:18;;;;;;;15.52;14.02;;;23.80;68.80;;;;;;4819607;54;20995;-34
2023/06/02 04:32:18;;;;;;;16.08;14.70;;;23.80;68.10;;;;;;4975828;54;21942;-35
2023/06/02 04:37:19;;;;;;;16.87;15.27;;;23.80;68.00;;;;;;4853027;54;21403;-33
2023/06/02 04:42:20;;;;;;;16.12;14.50;;;23.80;68.00;;;;;;5029159;54;21081;-37
2023/06/02 04:47:21;;;;;;;16.27;14.77;;;23.80;68.00;;;;;;4805735;54;21441;-31
2023/06/02 04:52:22;;;;;;;15.93;14.48;;;23.80;67.90;;;;;;4803567;54;21034;-33
2023/06/02 04:57:23;;;;;;;16.45;14.80;;;23.80;68.00;;;;;;4870854;54;21492;-34
2023/06/02 05:02:23;;;;;;;16.80;15.10;;;23.90;68.00;;;;;;4902408;54;21382;-33
2023/06/02 05:07:25;;;;;;;17.00;15.40;;;23.80;68.00;;;;;;4828146;54;21488;-34
2023/06/02 05:12:26;;;;;;;15.88;14.38;;;23.90;67.90;;;;;;4924405;54;21015;-33
2023/06/02 05:17:27;;;;;;;16.83;15.23;;;23.80;67.90;;;;;;5074362;54;21867;-29
2023/06/02 05:22:29;;;;;;;16.10;14.60;;;23.80;67.80;;;;;;4944256;54;21481;-33
2023/06/02 05:27:30;;;;;;;16.05;14.55;;;23.80;67.80;;;;;;4921604;54;21783;-33
2023/06/02 05:32:31;;;;;;;16.42;15.02;;;23.80;67.80;;;;;;5016457;54;21077;-34
2023/06/02 05:37:32;;;;;;;16.42;14.95;;;23.80;67.80;;;;;;4896029;54;21410;-34
2023/06/02 05:42:33;;;;;;;16.35;14.85;;;23.80;67.80;;;;;;4892890;54;21066;-34
2023/06/02 05:47:34;;;;;;;17.40;15.70;;;23.80;67.80;;;;;;4798747;58;21126;-34
2023/06/02 05:52:35;;;;;;;17.50;15.80;;;23.80;67.80;;;;;;4860800;54;21484;-32
2023/06/02 05:57:37;;;;;;;17.52;15.73;;;23.80;67.80;;;;;;4844341;54;21371;-33
2023/06/02 06:02:38;;;;;;;17.45;15.75;;;23.80;67.80;;;;;;4837773;54;21485;-35
2023/06/02 06:07:39;;;;;;;17.17;15.38;;;23.80;67.80;;;;;;4808505;54;21430;-32
2023/06/02 06:12:39;;;;;;;17.10;15.50;;;23.80;67.80;;;;;;4885163;54;21466;-30
2023/06/02 06:17:51;;;;;;;16.75;15.20;;;23.80;67.80;;;;;;4877068;54;21034;-33
2023/06/02 06:22:52;;;;;;;17.52;15.82;;;23.80;67.80;;;;;;4797540;58;21069;-32
2023/06/02 06:27:57;;;;;;;17.62;16.02;;;23.80;67.80;;;;;;4825981;54;21472;-33
2023/06/02 06:32:59;;;;;;;16.77;15.20;;;23.80;67.80;;;;;;4797779;58;21047;-33
2023/06/02 06:38:01;;;;;;;17.17;15.48;;;23.80;67.70;;;;;;4840787;54;21544;-33
2023/06/02 06:43:02;;;;;;;16.87;15.18;;;23.80;67.70;;;;;;4797377;58;22298;-34
2023/06/02 06:48:06;;;;;;;17.17;15.57;;;23.80;67.70;;;;;;4855389;54;21118;-33
2023/06/02 06:53:08;;;;;;;22.15;19.50;;;23.80;67.90;;;;;;4797853;58;21543;-33
2023/06/02 06:58:09;;;;;;;21.58;19.48;;;23.80;67.40;;;;;;4865385;54;21042;-33
2023/06/02 07:03:10;;;;;;;21.23;19.02;;;23.90;67.50;;;;;;4799051;58;21116;-33
2023/06/02 07:08:11;;;;;;;21.05;18.92;;;23.90;67.50;;;;;;4800059;54;21090;-34
2023/06/02 07:13:11;;;;;;;21.50;19.30;;;23.90;67.40;;;;;;4889128;54;21085;-33
2023/06/02 07:18:12;;;;;;;23.25;19.65;;;24.00;67.40;;;;;;4892999;54;21031;-34
2023/06/02 07:23:13;;;;;;;21.48;19.30;;;24.00;67.40;;;;;;4819573;54;21007;-33
2023/06/02 07:28:14;;;;;;;20.80;18.77;;;24.00;67.30;;;;;;4865310;54;21019;-32
2023/06/02 07:33:15;;;;;;;20.30;18.20;;;24.00;67.30;;;;;;4865196;54;21078;-32
2023/06/02 07:38:16;;;;;;;21.60;19.50;;;24.00;67.40;;;;;;4798751;54;21058;-35
2023/06/02 07:43:17;;;;;;;22.52;20.23;;;24.00;67.40;;;;;;4902592;54;21394;-35
2023/06/02 07:48:18;;;;;;;22.25;19.87;;;24.00;67.40;;;;;;4812472;54;21031;-34
2023/06/02 07:53:19;;;;;;;21.87;19.58;;;24.00;67.40;;;;;;4799187;58;21018;-33
2023/06/02 07:58:20;;;;;;;21.23;18.95;;;24.00;67.40;;;;;;4798998;58;21544;-33
2023/06/02 08:03:21;;;;;;;22.50;19.73;;;24.00;67.30;;;;;;4799215;58;20999;-33
2023/06/02 08:08:22;;;;;;;22.50;20.25;;;24.00;67.40;;;;;;4808733;54;21617;-30
2023/06/02 08:13:23;;;;;;;20.58;18.50;;;24.00;67.40;;;;;;4913790;54;21004;-34
2023/06/02 08:18:24;;;;;;;22.62;20.23;;;24.00;67.40;;;;;;4812363;54;21595;-36
2023/06/02 08:23:25;;;;;;;23.10;20.73;;;24.00;67.40;;;;;;4840239;54;21489;-34
2023/06/02 08:28:29;;;;;;;23.33;20.77;;;24.00;67.40;;;;;;4799118;58;21050;-33
2023/06/02 08:33:35;;;;;;;22.75;20.35;;;24.00;67.40;;;;;;4885519;54;21552;-33
2023/06/02 08:38:40;;;;;;;22.62;20.30;;;24.10;67.50;;;;;;4805199;54;21615;-34
2023/06/02 08:43:41;;;;;;;22.75;20.37;;;24.10;67.50;;;;;;4883366;54;21519;-34
2023/06/02 08:48:45;;;;;;;21.83;19.50;;;24.00;67.40;;;;;;4826698;54;21114;-34
2023/06/02 08:53:47;;;;;;;22.27;19.98;;;24.00;67.40;;;;;;4825114;54;21070;-34
2023/06/02 08:58:48;;;;;;;23.80;21.40;;;24.10;67.50;;;;;;4956787;54;21093;-34
2023/06/02 09:03:49;;;;;;;23.92;20.58;;;24.10;67.50;;;;;;4867685;54;21504;-34
2023/06/02 09:09:00;;;;;;;23.10;20.60;;;24.10;67.40;;;;;;4799053;58;21086;-36
2023/06/02 09:14:17;;;;;;;22.67;20.27;;;24.10;67.40;;;;;;4799175;58;21046;-34
2023/06/02 09:19:19;;;;;;;;;;;24.10;67.40;;;;;;4880652;54;21075;-34
2023/06/02 09:24:32;;;;;;;24.75;22.10;;;24.10;67.40;;;;;;4799512;58;20337;-33
2023/06/02 09:29:38;;;;;;;24.42;21.77;;;24.20;67.50;;;;;;4799000;58;21576;-34
2023/06/02 09:34:38;;;;;;;25.20;22.20;;;24.20;67.50;;;;;;4899577;54;21014;-32
2023/06/02 09:39:42;;;;;;;22.00;19.65;;;24.20;67.40;;;;;;4889116;54;21022;-33
2023/06/02 09:45:08;;;;;;;25.95;21.95;;;24.20;67.40;;;;;;4878623;54;21544;-33
2023/06/02 09:50:31;;;;;;;23.27;20.80;;;24.20;67.50;;;;;;4797952;58;21015;-34
2023/06/02 09:55:35;;;;;;;23.65;21.25;;;24.20;67.50;;;;;;4808235;54;21544;-33
2023/06/02 10:00:36;;;;;;;23.08;20.60;;;24.20;67.40;;;;;;4812936;54;21540;-31
2023/06/02 10:05:46;;;;;;;22.73;20.40;;;24.20;67.50;;;;;;4810790;54;21588;-41
2023/06/02 10:11:25;;;;;;;23.42;20.35;;;24.20;67.50;;;;;;4800345;54;21015;-34
2023/06/02 10:17:10;;;;;;;24.05;20.62;;;24.20;67.50;;;;;;4846262;54;21536;-33
2023/06/02 10:23:57;;;;;;;21.60;19.35;;;24.20;67.50;;;;;;4845781;54;21894;-33
2023/06/02 10:29:02;;;;;;;21.73;19.48;;;24.20;67.50;;;;;;4798365;55;21063;-33
2023/06/02 10:34:03;;;;;;;21.75;19.45;;;24.20;67.50;;;;;;4799181;56;21341;-34
2023/06/02 10:41:17;;;;;;;22.80;20.37;;;24.20;67.50;;;;;;4927948;54;21062;-34
2023/06/02 10:46:21;;;;;;;22.35;19.98;;;24.20;67.50;;;;;;4797204;58;22014;-34
2023/06/02 10:51:22;;;;;;;21.87;19.62;;;24.20;67.50;;;;;;4819876;54;21500;-33
2023/06/02 10:56:42;;;;;;;22.40;20.10;;;24.20;67.50;;;;;;4801641;54;21098;-33
2023/06/02 11:01:51;;;;;;;22.45;20.17;;;24.20;67.60;;;;;;4908111;54;20987;-34
2023/06/02 11:07:26;;;;;;;22.85;20.50;;;24.20;67.60;;;;;;4828105;54;21054;-33
2023/06/02 11:13:19;;;;;;;22.23;19.85;;;24.20;67.50;;;;;;5008625;54;21675;-34
2023/06/02 11:19:02;;;;;;;22.33;19.87;;;24.20;67.60;;;;;;4824772;54;21083;-34
2023/06/02 11:24:03;;;;;;;22.50;20.20;;;24.20;67.60;;;;;;4962816;54;21544;-32
2023/06/02 11:29:15;;;;;;;23.25;20.85;;;24.20;67.70;;;;;;4826916;54;21099;-30
2023/06/02 11:34:16;;;;;;;23.10;20.77;;;24.20;67.70;;;;;;4830193;54;21481;-32
2023/06/02 11:39:17;;;;;;;23.27;20.88;;;24.20;67.70;;;;;;4809805;54;21480;-32
2023/06/02 11:44:18;;;;;;;23.30;21.00;;;24.30;67.90;;;;;;4807347;54;21054;-31
2023/06/02 11:49:19;;;;;;;25.67;22.98;;;24.30;68.20;;;;;;4918649;54;21098;-32
2023/06/02 11:54:20;;;;;;;26.30;23.25;;;24.40;68.50;;;;;;4801203;54;21007;-29
2023/06/02 11:59:21;;;;;;;24.70;22.13;;;24.50;68.20;;;;;;4796395;58;21034;-31
2023/06/02 12:04:22;;;;;;;26.12;23.38;;;24.50;68.50;;;;;;4861105;54;21094;-27
2023/06/02 12:09:24;;;;;;;26.52;23.70;;;24.50;68.80;;;;;;4796925;54;21512;-29
2023/06/02 12:14:36;;;;;;;27.92;24.75;;;24.40;69.10;;;;;;4827985;54;21479;-31
2023/06/02 12:19:37;;;;;;;26.40;23.60;;;24.50;69.30;;;;;;4810744;54;21027;-35
2023/06/02 12:24:38;;;;;;;25.95;23.27;;;24.50;69.50;;;;;;4797251;58;21018;-31
2023/06/02 12:29:39;;;;;;;25.90;23.15;;;24.50;69.40;;;;;;4802946;54;21046;-32
2023/06/02 12:34:42;;;;;;;27.25;24.23;;;24.60;69.50;;;;;;4797154;58;21113;-30
2023/06/02 12:39:42;;;;;;;29.05;25.85;;;24.60;69.80;;;;;;4846876;54;21496;-33
2023/06/02 12:44:43;;;;;;;26.98;24.15;;;24.60;69.80;;;;;;4901251;54;21010;-28
2023/06/02 12:49:47;;;;;;;28.23;25.05;;;24.50;69.90;;;;;;4827260;54;21523;-28
2023/06/02 12:54:48;;;;;;;28.33;25.33;;;24.60;70.00;;;;;;4807519;54;21129;-33
2023/06/02 12:59:52;;;;;;;31.45;25.83;;;24.60;70.20;;;;;;4803483;54;21082;-34
2023/06/02 13:04:52;;;;;;;28.20;25.20;;;24.60;70.00;;;;;;4850378;54;21555;-36
2023/06/02 13:09:53;;;;;;;26.62;23.90;;;24.50;70.30;;;;;;4815190;54;21037;-32
2023/06/02 13:14:54;;;;;;;28.02;24.55;;;24.40;70.40;;;;;;4801494;54;21038;-33
2023/06/02 13:19:55;;;;;;;28.52;25.52;;;24.40;70.50;;;;;;4847799;54;21492;-35
2023/06/02 13:24:56;;;;;;;30.35;26.92;;;24.30;70.50;;;;;;4798142;58;21019;-34
2023/06/02 13:29:57;;;;;;;28.83;25.80;;;24.30;70.50;;;;;;4799298;58;21014;-34
2023/06/02 13:34:58;;;;;;;29.25;26.15;;;24.30;70.50;;;;;;4920605;54;21015;-32
2023/06/02 13:39:59;;;;;;;29.70;25.40;;;24.20;70.50;;;;;;4887271;54;21086;-32
2023/06/02 13:45:00;;;;;;;28.45;25.50;;;24.30;70.60;;;;;;4876346;54;21055;-32
2023/06/02 13:50:00;;;;;;;29.23;26.33;;;24.20;70.50;;;;;;4799948;54;21035;-33
2023/06/02 13:55:01;;;;;;;28.17;25.17;;;24.20;70.50;;;;;;4837945;54;21515;-35
2023/06/02 14:00:03;;;;;;;28.52;25.37;;;24.20;71.10;;;;;;5030300;54;21030;-33
2023/06/02 14:05:06;;;;;;;29.65;25.98;;;24.20;70.40;;;;;;4870405;54;21472;-34
2023/06/02 14:10:07;;;;;;;29.00;25.98;;;24.30;70.40;;;;;;4799412;55;21058;-32
2023/06/02 14:15:09;;;;;;;29.27;26.23;;;24.20;70.30;;;;;;5109516;54;21544;-33
2023/06/02 14:20:13;;;;;;;27.62;24.10;;;24.20;70.30;;;;;;4798535;58;20994;-37
2023/06/02 14:25:14;;;;;;;27.90;24.37;;;24.20;70.40;;;;;;4799051;58;21115;-36
2023/06/02 14:30:15;;;;;;;29.60;26.50;;;24.20;70.40;;;;;;4866201;54;21085;-31
2023/06/02 14:35:16;;;;;;;28.92;24.92;;;24.20;70.30;;;;;;4810184;54;21062;-33
2023/06/02 14:40:17;;;;;;;27.67;24.65;;;24.20;70.40;;;;;;4798710;55;21126;-33
2023/06/02 14:45:18;;;;;;;28.00;25.00;;;24.20;70.40;;;;;;4843735;54;21015;-33
2023/06/02 14:50:19;;;;;;;27.60;24.58;;;24.20;70.40;;;;;;4797778;58;21541;-33
2023/06/02 14:55:20;;;;;;;30.25;25.77;;;24.20;70.40;;;;;;4982366;54;21081;-33
2023/06/02 15:00:21;;;;;;;28.38;25.35;;;24.20;70.30;;;;;;4834262;54;21512;-37
2023/06/02 15:05:22;;;;;;;28.92;25.50;;;24.20;70.30;;;;;;4862298;54;21015;-35
2023/06/02 15:10:23;;;;;;;27.98;25.08;;;24.20;70.40;;;;;;4798818;58;21082;-33
2023/06/02 15:15:24;;;;;;;29.15;24.37;;;24.20;70.30;;;;;;4814365;54;21041;-34
2023/06/02 15:20:25;;;;;;;29.50;26.40;;;24.20;70.30;;;;;;4865527;54;21561;-39
2023/06/02 15:25:26;;;;;;;28.05;25.25;;;24.20;70.30;;;;;;4853687;54;21046;-30
2023/06/02 15:30:29;;;;;;;28.27;25.37;;;24.20;70.80;;;;;;4939549;54;21511;-35
2023/06/02 15:35:29;;;;;;;29.63;26.62;;;24.20;70.30;;;;;;4798837;58;21508;-33
2023/06/02 15:40:30;;;;;;;28.70;25.65;;;24.20;70.20;;;;;;4799052;54;21011;-34
2023/06/02 15:45:31;;;;;;;29.70;26.50;;;24.20;70.20;;;;;;4882191;54;21484;-35
2023/06/02 15:50:32;;;;;;;30.60;27.48;;;24.20;70.30;;;;;;4797626;58;21110;-35
2023/06/02 15:55:33;;;;;;;29.58;26.58;;;24.20;70.20;;;;;;4935108;54;21472;-34
2023/06/02 16:00:34;;;;;;;29.33;26.33;;;24.20;70.20;;;;;;4826415;54;21019;-34
2023/06/02 16:05:36;;;;;;;30.50;27.23;;;24.20;70.10;;;;;;4798957;55;21015;-34
2023/06/02 16:10:37;;;;;;;29.25;26.12;;;24.20;70.20;;;;;;4909991;54;21488;-35
2023/06/02 16:15:38;;;;;;;29.17;26.20;;;24.20;70.10;;;;;;4861592;54;20998;-35
2023/06/02 16:20:39;;;;;;;30.05;27.05;;;24.20;70.00;;;;;;5043279;54;21118;-34
2023/06/02 16:25:39;;;;;;;28.70;25.70;;;24.20;70.00;;;;;;4799228;55;21473;-35
2023/06/02 16:30:40;;;;;;;29.23;26.33;;;24.20;70.10;;;;;;4919739;54;20995;-31
2023/06/02 16:35:41;;;;;;;30.25;27.10;;;24.20;70.10;;;;;;4799075;58;21023;-34
2023/06/02 16:40:43;;;;;;;26.83;24.23;;;24.20;70.10;;;;;;4808916;54;21034;-31
2023/06/02 16:45:45;;;;;;;30.02;26.42;;;24.20;70.00;;;;;;4931852;54;21472;-33
2023/06/02 16:50:47;;;;;;;29.77;26.75;;;24.20;70.00;;;;;;4935950;54;21063;-34
2023/06/02 16:55:50;;;;;;;29.17;26.17;;;24.20;70.00;;;;;;4923435;54;21583;-32
2023/06/02 17:00:51;;;;;;;31.17;27.95;;;24.20;70.00;;;;;;4857539;54;21551;-34
2023/06/02 17:05:52;;;;;;;29.83;26.70;;;24.20;70.00;;;;;;4808248;54;21042;-32
2023/06/02 17:10:53;;;;;;;29.52;26.52;;;24.20;70.00;;;;;;4818468;54;21050;-38
2023/06/02 17:15:54;;;;;;;30.42;27.33;;;24.20;70.10;;;;;;4808865;54;20998;-36
2023/06/02 17:20:55;;;;;;;29.63;26.60;;;24.20;70.10;;;;;;4798593;58;21659;-37
2023/06/02 17:25:56;;;;;;;30.77;27.62;;;24.20;70.00;;;;;;4955270;54;21010;-33
2023/06/02 17:30:57;;;;;;;30.12;27.15;;;24.20;70.00;;;;;;4799662;58;20994;-33
2023/06/02 17:35:58;;;;;;;29.52;26.55;;;24.20;70.10;;;;;;4808304;54;21532;-35
2023/06/02 17:40:59;;;;;;;29.12;26.23;;;24.20;70.10;;;;;;4798321;58;20999;-34
2023/06/02 17:46:00;;;;;;;30.62;27.45;;;24.20;70.10;;;;;;4837080;54;21493;-34
2023/06/02 17:51:02;;;;;;;29.60;26.60;;;24.20;70.10;;;;;;4808324;54;21253;-33
2023/06/02 17:56:03;;;;;;;28.70;25.70;;;24.10;70.00;;;;;;4857246;54;21505;-33
2023/06/02 18:01:04;;;;;;;29.15;26.08;;;24.20;70.00;;;;;;4809373;54;21155;-33
2023/06/02 18:06:05;;;;;;;29.42;26.42;;;24.20;70.10;;;;;;4893329;54;21010;-33
2023/06/02 18:11:06;;;;;;;29.90;26.80;;;24.20;70.00;;;;;;4860177;54;21047;-31
2023/06/02 18:16:07;;;;;;;31.65;28.45;;;24.20;70.10;;;;;;4799482;58;21014;-37
2023/06/02 18:21:10;;;;;;;30.52;27.50;;;24.10;70.00;;;;;;4929213;54;21090;-36
2023/06/02 18:26:11;;;;;;;31.70;28.33;;;24.20;70.10;;;;;;4991941;54;21496;-35
2023/06/02 18:31:13;;;;;;;28.08;25.27;;;24.20;70.10;;;;;;4848677;54;21692;-33
2023/06/02 18:36:14;;;;;;;28.95;25.95;;;24.20;70.10;;;;;;4950972;54;21089;-30
2023/06/02 18:41:15;;;;;;;31.25;28.05;;;24.20;70.10;;;;;;4875934;54;22395;-33
2023/06/02 18:46:16;;;;;;;30.67;27.58;;;24.10;70.00;;;;;;4933617;54;21038;-32
2023/06/02 18:51:16;;;;;;;30.25;27.15;;;24.10;70.00;;;;;;4925776;54;21058;-33
2023/06/02 18:56:17;;;;;;;30.88;27.85;;;24.20;70.10;;;;;;4822561;54;21011;-36
2023/06/02 19:01:23;;;;;;;29.12;26.10;;;24.20;70.00;;;;;;4833126;54;21011;-34
2023/06/02 19:06:24;;;;;;;29.05;25.98;;;24.20;70.00;;;;;;4862197;54;21018;-33
2023/06/02 19:11:28;;;;;;;30.33;27.37;;;24.20;70.00;;;;;;4935440;54;21580;-32
2023/06/02 19:16:29;;;;;;;30.00;27.00;;;24.20;70.00;;;;;;5127558;54;21215;-33
2023/06/02 19:21:30;;;;;;;29.60;26.58;;;24.10;70.00;;;;;;4800391;54;21548;-34
2023/06/02 19:26:31;;;;;;;29.30;26.27;;;24.10;70.00;;;;;;4845364;54;21006;-34
2023/06/02 19:31:32;;;;;;;30.30;27.25;;;24.20;70.10;;;;;;4805364;54;21544;-31
2023/06/02 19:36:34;;;;;;;29.37;26.45;;;24.10;70.00;;;;;;4846019;54;21006;-32
2023/06/02 19:41:36;;;;;;;30.70;27.58;;;24.10;70.10;;;;;;4844345;54;21429;-35
2023/06/02 19:46:37;;;;;;;29.85;26.77;;;24.20;70.10;;;;;;4799593;58;21367;-33
2023/06/02 19:51:41;;;;;;;30.73;27.70;;;24.10;70.00;;;;;;4885480;54;21877;-38
2023/06/02 19:56:42;;;;;;;29.80;26.87;;;24.10;70.00;;;;;;4799938;58;21034;-36
2023/06/02 20:01:43;;;;;;;28.73;25.95;;;24.10;70.00;;;;;;4798559;58;21624;-34
2023/06/02 20:06:44;;;;;;;31.83;28.55;;;24.10;70.00;;;;;;4893842;54;20979;-33
2023/06/02 20:11:46;;;;;;;28.87;26.02;;;24.10;70.00;;;;;;4944719;54;21057;-32
2023/06/02 20:16:46;;;;;;;30.25;27.30;;;24.10;69.90;;;;;;4939187;54;21003;-35
2023/06/02 20:21:47;;;;;;;29.87;26.85;;;24.10;69.90;;;;;;4904289;54;20999;-34
2023/06/02 20:26:48;;;;;;;27.67;24.95;;;24.10;70.00;;;;;;4952247;54;21004;-34
2023/06/02 20:31:49;;;;;;;29.95;26.95;;;24.10;70.00;;;;;;4819891;54;21513;-33
2023/06/02 20:36:50;;;;;;;28.77;25.98;;;24.10;69.80;;;;;;4892592;54;21059;-34
2023/06/02 20:41:51;;;;;;;28.85;25.95;;;24.10;69.90;;;;;;4882065;54;21564;-33
2023/06/02 20:46:52;;;;;;;28.62;25.83;;;24.10;69.90;;;;;;4863874;54;21042;-33
2023/06/02 20:51:53;;;;;;;29.48;26.50;;;24.10;69.80;;;;;;4798261;58;21485;-34
2023/06/02 20:56:54;;;;;;;29.33;26.42;;;24.10;69.80;;;;;;4799452;58;20999;-33
2023/06/02 21:01:55;;;;;;;28.67;25.88;;;24.10;69.80;;;;;;4811327;54;21081;-34
2023/06/02 21:06:57;;;;;;;29.10;26.25;;;24.10;69.70;;;;;;4829828;54;21030;-34
2023/06/02 21:11:59;;;;;;;29.25;26.37;;;24.10;69.70;;;;;;4799889;58;21639;-35
2023/06/02 21:17:01;;;;;;;28.55;25.83;;;24.10;69.70;;;;;;4799573;58;21500;-32
2023/06/02 21:22:02;;;;;;;28.90;26.10;;;24.10;69.70;;;;;;5056373;54;21086;-32
2023/06/02 21:27:04;;;;;;;28.35;25.58;;;24.10;69.50;;;;;;4799578;58;21058;-32
2023/06/02 21:32:06;;;;;;;28.98;25.92;;;24.10;69.60;;;;;;4857144;54;21484;-32
2023/06/02 21:37:07;;;;;;;26.77;24.08;;;24.10;69.60;;;;;;4929201;54;21034;-33
2023/06/02 21:42:08;;;;;;;28.92;26.15;;;24.10;69.60;;;;;;4831513;54;21620;-32
2023/06/02 21:47:09;;;;;;;29.02;26.23;;;24.10;69.60;;;;;;4798960;58;21042;-36
2023/06/02 21:52:10;;;;;;;27.40;24.77;;;24.10;69.50;;;;;;4799199;58;21006;-34
2023/06/02 21:57:12;;;;;;;27.42;24.83;;;24.10;69.50;;;;;;4799425;58;21030;-33
2023/06/02 22:02:13;;;;;;;25.85;23.35;;;24.10;69.60;;;;;;4825654;54;21541;-33
2023/06/02 22:07:14;;;;;;;27.20;24.60;;;24.10;69.50;;;;;;4892406;54;21062;-33
2023/06/02 22:12:15;;;;;;;26.45;23.87;;;24.10;69.50;;;;;;4799519;58;21511;-34
2023/06/02 22:17:16;;;;;;;26.90;24.40;;;24.10;70.10;;;;;;4806345;54;20987;-33
2023/06/02 22:22:17;;;;;;;27.00;24.50;;;24.10;69.50;;;;;;5026260;54;21480;-35
2023/06/02 22:27:17;;;;;;;26.12;23.62;;;24.10;69.50;;;;;;4938507;54;21058;-32
2023/06/02 22:32:18;;;;;;;26.75;24.12;;;24.10;69.50;;;;;;4938073;54;20999;-33
2023/06/02 22:37:19;;;;;;;27.65;24.92;;;24.10;69.60;;;;;;5030362;54;21043;-33
2023/06/02 22:42:22;;;;;;;27.08;24.37;;;24.10;69.50;;;;;;4913292;54;21006;-33
2023/06/02 22:47:25;;;;;;;27.65;24.87;;;24.10;69.50;;;;;;4798594;58;21038;-33
2023/06/02 22:52:25;;;;;;;26.67;24.15;;;24.10;69.40;;;;;;4815160;54;21489;-34
2023/06/02 22:57:26;;;;;;;26.95;24.35;;;24.10;69.50;;;;;;4799095;58;21015;-34
2023/06/02 23:02:27;;;;;;;27.33;24.73;;;24.10;69.40;;;;;;4865035;54;21608;-36
2023/06/02 23:07:28;;;;;;;26.35;23.65;;;24.10;69.40;;;;;;4905562;54;20995;-34
2023/06/02 23:12:29;;;;;;;26.25;23.77;;;24.10;69.40;;;;;;4808141;54;21529;-35
2023/06/02 23:17:30;;;;;;;26.48;23.95;;;24.10;69.40;;;;;;4910174;54;21034;-35
2023/06/02 23:22:31;;;;;;;26.27;23.67;;;24.10;69.40;;;;;;4852450;54;21533;-33
2023/06/02 23:27:32;;;;;;;27.10;24.40;;;24.10;69.90;;;;;;4850340;54;21112;-32
2023/06/02 23:32:32;;;;;;;26.85;24.25;;;24.10;69.50;;;;;;4900928;54;21002;-32
2023/06/02 23:37:33;;;;;;;26.17;23.67;;;24.10;69.50;;;;;;4864715;54;21002;-32
2023/06/02 23:42:38;;;;;;;25.75;23.27;;;24.10;69.50;;;;;;4931081;54;21584;-32
2023/06/02 23:47:42;;;;;;;27.02;24.45;;;24.10;69.40;;;;;;4819336;54;21042;-35
2023/06/02 23:52:43;;;;;;;26.05;23.65;;;24.10;69.40;;;;;;5029264;54;20999;-29
2023/06/02 23:57:43;;;;;;;25.67;23.27;;;24.10;69.40;;;;;;4799206;58;21078;-33
